Time;durP1;ratioP1;P1;durP2;ratioP2;P2;SDS_P1;SDS_P2;PMS_P1;PMS_P2;Temp;Humidity;BMP_temperature;BMP_pressure;BME280_temperature;BME280_humidity;BME280_pressure;Samples;Min_cycle;Max_cycle;Signal;HPM_P1;HPM_P2
2022/08/18 00:00:57;;;;;;;;;;;;;;;26.50;41.11;99215.06;3121007;28;20627;-64
2022/08/18 00:02:29;;;;;;;;;;;;;;;26.44;41.53;99217.59;3121239;28;19929;-64
2022/08/18 00:04:00;;;;;;;;;;;;;;;26.42;41.67;99216.97;3121128;28;20363;-64
2022/08/18 00:05:32;;;;;;;;;;;;;;;26.37;41.76;99222.03;3120589;28;19925;-64
2022/08/18 00:07:03;;;;;;;;;;;;;;;26.29;41.88;99220.25;3121018;28;19929;-64
2022/08/18 00:08:35;;;;;;;;;;;;;;;26.22;42.46;99216.69;3121231;28;19925;-64
2022/08/18 00:10:07;;;;;;;;;;;;;;;26.14;42.36;99212.25;3117944;28;19925;-64
2022/08/18 00:11:40;;;;;;;;;;;;;;;26.10;42.35;99208.31;3120630;28;19932;-64
2022/08/18 00:13:12;;;;;;;;;;;;;;;26.09;42.83;99217.34;3114613;28;19976;-64
2022/08/18 00:14:43;;;;;;;;;;;;;;;26.05;42.68;99216.03;3121097;28;19932;-64
2022/08/18 00:16:15;;;;;;;;;;;;;;;26.01;42.86;99214.75;3120919;28;19972;-64
2022/08/18 00:17:46;;;;;;;;;;;;;;;25.93;43.33;99210.31;3114693;28;19925;-65
2022/08/18 00:19:17;;;;;;;;;;;;;;;25.87;43.63;99211.06;3121161;28;19926;-64
2022/08/18 00:20:49;;;;;;;;;;;;;;;25.78;43.90;99212.94;3118344;28;20073;-64
2022/08/18 00:22:21;;;;;;;;;;;;;;;25.72;43.88;99218.19;3118973;28;20284;-64
2022/08/18 00:23:52;;;;;;;;;;;;;;;25.67;44.08;99212.53;3114863;28;19925;-64
2022/08/18 00:25:24;;;;;;;;;;;;;;;25.61;44.09;99217.59;3121010;28;19955;-65
2022/08/18 00:26:57;;;;;;;;;;;;;;;25.57;44.37;99210.97;3120677;28;19925;-64
2022/08/18 00:28:28;;;;;;;;;;;;;;;25.53;44.39;99215.00;3120729;28;19925;-64
2022/08/18 00:30:01;;;;;;;;;;;;;;;25.47;44.81;99215.72;3120965;28;19988;-64
2022/08/18 00:31:32;;;;;;;;;;;;;;;25.45;44.65;99214.25;3121008;28;19936;-63
2022/08/18 00:33:03;;;;;;;;;;;;;;;25.42;44.84;99210.09;3120887;28;20295;-64
2022/08/18 00:34:34;;;;;;;;;;;;;;;25.40;44.69;99212.94;3120974;28;19936;-64
2022/08/18 00:36:06;;;;;;;;;;;;;;;25.35;45.23;99210.00;3120873;28;19925;-65
2022/08/18 00:37:37;;;;;;;;;;;;;;;25.33;44.86;99212.00;3120476;28;19925;-64
2022/08/18 00:39:08;;;;;;;;;;;;;;;25.32;44.83;99209.50;3120920;28;19925;-64
2022/08/18 00:40:42;;;;;;;;;;;;;;;25.19;45.12;99194.13;3118660;28;19953;-64
2022/08/18 00:42:16;;;;;;;;;;;;;;;25.23;45.61;99205.25;3119457;28;20016;-64
2022/08/18 00:43:48;;;;;;;;;;;;;;;25.19;45.71;99204.78;3120782;28;20293;-64
2022/08/18 00:45:20;;;;;;;;;;;;;;;25.14;45.61;99205.31;3120900;28;19936;-64
2022/08/18 00:46:52;;;;;;;;;;;;;;;25.13;45.53;99206.31;3120942;28;19973;-64
2022/08/18 00:48:23;;;;;;;;;;;;;;;25.10;45.81;99201.31;3120669;28;19952;-64
2022/08/18 00:49:55;;;;;;;;;;;;;;;25.07;45.97;99201.66;3120891;28;19925;-64
2022/08/18 00:51:29;;;;;;;;;;;;;;;25.07;45.92;99208.84;3120763;28;19937;-64
2022/08/18 00:53:03;;;;;;;;;;;;;;;25.04;45.90;99212.69;3120699;28;20292;-64
2022/08/18 00:54:34;;;;;;;;;;;;;;;25.02;45.81;99209.34;3120517;28;19929;-64
2022/08/18 00:56:10;;;;;;;;;;;;;;;25.01;46.04;99214.88;3121151;28;19925;-64
2022/08/18 00:57:44;;;;;;;;;;;;;;;24.96;45.96;99210.91;3116095;28;20026;-64
2022/08/18 00:59:17;;;;;;;;;;;;;;;24.95;46.23;99213.72;3120644;28;19936;-64
2022/08/18 01:00:50;;;;;;;;;;;;;;;24.93;46.40;99216.56;3118628;28;19925;-64
2022/08/18 01:02:24;;;;;;;;;;;;;;;24.90;46.17;99218.75;3120639;28;19929;-64
2022/08/18 01:03:58;;;;;;;;;;;;;;;24.89;46.12;99219.78;3120784;28;19925;-64
2022/08/18 01:05:39;;;;;;;;;;;;;;;24.89;46.34;99219.78;3117066;28;19929;-64
2022/08/18 01:07:14;;;;;;;;;;;;;;;24.86;46.70;99217.47;3118126;28;20420;-64
2022/08/18 01:08:44;;;;;;;;;;;;;;;24.84;46.55;99214.13;3120670;28;19940;-64
2022/08/18 01:10:17;;;;;;;;;;;;;;;24.84;46.48;99214.94;3120590;28;20249;-64
2022/08/18 01:11:50;;;;;;;;;;;;;;;24.82;46.58;99218.81;3120469;28;19933;-64
2022/08/18 01:13:25;;;;;;;;;;;;;;;24.80;46.77;99221.66;3120553;28;20028;-64
2022/08/18 01:14:56;;;;;;;;;;;;;;;24.78;46.52;99220.16;3120932;28;19936;-64
2022/08/18 01:22:01;;;;;;;;;;;;;;;24.65;47.21;99220.72;3121343;28;19961;-64
2022/08/18 01:23:35;;;;;;;;;;;;;;;24.62;47.06;99221.91;3122658;28;19929;-64
2022/08/18 01:26:56;;;;;;;;;;;;;;;24.60;47.19;99217.75;3121707;28;20399;-63
2022/08/18 01:28:28;;;;;;;;;;;;;;;24.60;47.13;99210.59;3122444;28;19925;-63
2022/08/18 01:30:04;;;;;;;;;;;;;;;24.59;47.22;99219.59;3120358;28;19930;-63
2022/08/18 01:31:37;;;;;;;;;;;;;;;24.52;47.37;99207.97;3122514;28;20316;-63
2022/08/18 01:33:09;;;;;;;;;;;;;;;24.60;47.11;99220.41;3122284;28;19925;-63
2022/08/18 01:34:40;;;;;;;;;;;;;;;24.58;47.36;99214.44;3119363;28;19925;-63
2022/08/18 01:36:15;;;;;;;;;;;;;;;24.56;47.58;99222.59;3122296;28;19929;-63
2022/08/18 01:37:45;;;;;;;;;;;;;;;24.55;47.33;99212.97;3122500;28;19925;-63
2022/08/18 01:39:19;;;;;;;;;;;;;;;24.55;47.26;99215.63;3122562;28;20015;-64
2022/08/18 01:40:50;;;;;;;;;;;;;;;24.52;47.36;99219.47;3122121;28;19925;-63
2022/08/18 01:42:22;;;;;;;;;;;;;;;24.52;47.42;99216.81;3120510;28;19993;-63
2022/08/18 01:43:52;;;;;;;;;;;;;;;24.54;47.35;99218.44;3122264;28;19925;-63
2022/08/18 01:45:24;;;;;;;;;;;;;;;24.52;47.34;99213.28;3137389;27;20284;-63
2022/08/18 01:46:56;;;;;;;;;;;;;;;24.50;47.37;99216.13;3122328;28;19925;-63
2022/08/18 01:48:31;;;;;;;;;;;;;;;24.50;47.48;99220.63;3122320;28;19928;-63
2022/08/18 01:50:05;;;;;;;;;;;;;;;24.50;47.29;99212.66;3133854;28;19929;-63
2022/08/18 01:51:40;;;;;;;;;;;;;;;24.49;47.36;99219.81;3122227;28;19933;-63
2022/08/18 01:53:11;;;;;;;;;;;;;;;24.47;47.49;99223.66;3122268;28;19936;-65
2022/08/18 01:54:44;;;;;;;;;;;;;;;24.47;47.41;99220.97;3122278;28;19925;-63
2022/08/18 01:56:16;;;;;;;;;;;;;;;24.44;47.41;99227.47;3122014;28;20046;-63
2022/08/18 01:57:48;;;;;;;;;;;;;;;24.43;47.54;99224.97;3122413;28;19985;-63
2022/08/18 01:59:20;;;;;;;;;;;;;;;24.41;47.32;99227.78;3122113;28;19933;-63
2022/08/18 02:00:50;;;;;;;;;;;;;;;24.41;47.38;99222.47;3122328;28;19925;-63
2022/08/18 02:02:24;;;;;;;;;;;;;;;24.39;47.49;99223.63;3122186;28;19929;-63
2022/08/18 02:03:58;;;;;;;;;;;;;;;24.41;47.22;99221.63;3121611;28;19925;-63
2022/08/18 02:05:33;;;;;;;;;;;;;;;24.44;47.36;99224.00;3121944;28;20002;-64
2022/08/18 02:07:07;;;;;;;;;;;;;;;24.44;47.21;99216.81;3121895;28;20360;-63
2022/08/18 02:08:38;;;;;;;;;;;;;;;24.45;47.31;99217.66;3121986;28;20004;-63
2022/08/18 02:10:11;;;;;;;;;;;;;;;24.43;47.51;99209.84;3121867;28;19940;-63
2022/08/18 02:11:42;;;;;;;;;;;;;;;24.45;47.29;99207.84;3119998;28;19994;-65
2022/08/18 02:13:14;;;;;;;;;;;;;;;24.46;47.35;99220.16;3117821;28;19941;-63
2022/08/18 02:14:46;;;;;;;;;;;;;;;24.47;47.09;99219.16;3122161;28;19940;-63
2022/08/18 02:16:18;;;;;;;;;;;;;;;24.50;47.35;99223.28;3121092;28;19925;-63
2022/08/18 02:17:50;;;;;;;;;;;;;;;24.51;46.94;99224.94;3121945;28;20410;-64
2022/08/18 02:19:21;;;;;;;;;;;;;;;24.52;47.24;99226.59;3122236;28;19925;-64
2022/08/18 02:20:52;;;;;;;;;;;;;;;24.52;47.18;99218.59;3122116;28;19952;-64
2022/08/18 02:22:24;;;;;;;;;;;;;;;24.50;46.88;99221.47;3118632;28;19929;-64
2022/08/18 02:23:56;;;;;;;;;;;;;;;24.49;47.08;99222.47;3122113;28;19936;-64
2022/08/18 02:25:29;;;;;;;;;;;;;;;24.50;47.18;99224.13;3121895;28;20388;-63
2022/08/18 02:26:59;;;;;;;;;;;;;;;24.52;47.03;99218.59;3121682;28;20372;-64
2022/08/18 02:28:31;;;;;;;;;;;;;;;24.55;46.89;99220.09;3120607;28;19925;-64
2022/08/18 02:30:05;;;;;;;;;;;;;;;24.52;47.03;99215.94;3120871;28;19940;-64
2022/08/18 02:31:36;;;;;;;;;;;;;;;24.53;46.81;99214.97;3122150;28;19932;-64
2022/08/18 02:33:09;;;;;;;;;;;;;;;24.53;46.89;99214.97;3121718;28;19925;-64
2022/08/18 02:34:41;;;;;;;;;;;;;;;24.54;46.77;99211.28;3122075;28;19929;-64
2022/08/18 02:36:13;;;;;;;;;;;;;;;24.55;46.96;99218.28;3122101;28;19929;-64
2022/08/18 02:37:46;;;;;;;;;;;;;;;24.54;46.90;99216.63;3122064;28;19933;-64
2022/08/18 02:39:17;;;;;;;;;;;;;;;24.54;46.97;99211.28;3115905;28;19968;-64
2022/08/18 02:40:55;;;;;;;;;;;;;;;24.51;46.97;99215.13;3121669;28;19936;-64
2022/08/18 02:42:28;;;;;;;;;;;;;;;24.50;46.90;99216.13;3121490;28;20461;-64
2022/08/18 02:43:59;;;;;;;;;;;;;;;24.47;47.10;99216.47;3119283;28;19940;-64
2022/08/18 02:45:31;;;;;;;;;;;;;;;24.46;47.20;99219.31;3121642;28;19931;-64
2022/08/18 02:47:03;;;;;;;;;;;;;;;24.43;47.10;99212.53;3121698;28;20355;-64
2022/08/18 02:48:34;;;;;;;;;;;;;;;24.42;47.28;99217.97;3121890;28;20291;-64
2022/08/18 02:50:06;;;;;;;;;;;;;;;24.42;46.97;99212.66;3121644;28;19925;-64
2022/08/18 02:51:37;;;;;;;;;;;;;;;24.41;47.17;99218.97;3121752;28;19925;-63
2022/08/18 02:53:11;;;;;;;;;;;;;;;24.41;46.94;99216.31;3121592;28;20004;-64
2022/08/18 02:54:43;;;;;;;;;;;;;;;24.40;47.03;99210.16;3121861;28;19932;-64
2022/08/18 02:56:20;;;;;;;;;;;;;;;24.40;47.14;99214.63;3121579;28;19929;-64
2022/08/18 02:57:52;;;;;;;;;;;;;;;24.41;47.19;99208.34;3119170;28;20332;-64
2022/08/18 02:59:24;;;;;;;;;;;;;;;24.42;47.37;99217.97;3118806;28;19998;-64
2022/08/18 03:00:55;;;;;;;;;;;;;;;24.40;47.18;99218.16;3121765;28;19936;-64
2022/08/18 03:02:27;;;;;;;;;;;;;;;24.42;47.16;99221.47;3121438;28;19925;-64
2022/08/18 03:03:58;;;;;;;;;;;;;;;24.40;47.07;99223.47;3121568;28;20379;-64
2022/08/18 03:05:30;;;;;;;;;;;;;;;24.42;47.20;99223.28;3121734;28;19976;-64
2022/08/18 03:07:03;;;;;;;;;;;;;;;24.44;47.00;99224.81;3121410;28;19925;-64
2022/08/18 03:08:35;;;;;;;;;;;;;;;24.46;46.83;99227.28;3121524;28;20275;-64
2022/08/18 03:10:06;;;;;;;;;;;;;;;24.47;47.00;99226.31;3121693;28;19925;-65
2022/08/18 03:11:40;;;;;;;;;;;;;;;24.49;47.06;99234.94;3119029;28;19928;-65
2022/08/18 03:13:12;;;;;;;;;;;;;;;24.48;46.83;99228.78;3117271;28;19936;-65
2022/08/18 03:14:45;;;;;;;;;;;;;;;24.49;46.85;99230.47;3121603;28;19929;-65
2022/08/18 03:16:16;;;;;;;;;;;;;;;24.50;46.56;99232.09;3121505;28;20303;-65
2022/08/18 03:17:48;;;;;;;;;;;;;;;24.51;46.76;99225.78;3121637;28;19925;-65
2022/08/18 03:19:18;;;;;;;;;;;;;;;24.51;46.90;99228.44;3121414;28;19929;-65
2022/08/18 03:20:50;;;;;;;;;;;;;;;24.50;46.76;99223.28;3121591;28;19925;-65
2022/08/18 03:22:22;;;;;;;;;;;;;;;24.50;46.90;99224.13;3121281;28;20012;-65
2022/08/18 03:23:55;;;;;;;;;;;;;;;24.51;46.57;99232.94;3121594;28;20016;-65
2022/08/18 03:25:26;;;;;;;;;;;;;;;24.47;46.71;99228.97;3121315;28;20020;-65
2022/08/18 03:26:59;;;;;;;;;;;;;;;24.46;47.02;99232.59;3121604;28;20301;-65
2022/08/18 03:28:29;;;;;;;;;;;;;;;24.45;46.97;99233.63;3115140;28;19925;-65
2022/08/18 03:30:03;;;;;;;;;;;;;;;24.43;46.98;99231.16;3121429;28;19955;-65
2022/08/18 03:31:38;;;;;;;;;;;;;;;24.43;46.67;99232.94;3121317;28;19930;-66
2022/08/18 03:33:10;;;;;;;;;;;;;;;24.43;46.82;99232.94;3121510;28;19936;-65
2022/08/18 03:34:42;;;;;;;;;;;;;;;24.43;46.91;99225.81;3121385;28;19925;-65
2022/08/18 03:36:15;;;;;;;;;;;;;;;24.44;46.94;99232.78;3121183;28;20269;-65
2022/08/18 03:37:47;;;;;;;;;;;;;;;24.45;46.99;99228.28;3121178;28;19925;-65
2022/08/18 03:39:21;;;;;;;;;;;;;;;24.44;46.82;99230.13;3121345;28;19940;-65
2022/08/18 03:40:53;;;;;;;;;;;;;;;24.44;46.81;99219.50;3117264;28;19976;-65
2022/08/18 03:42:26;;;;;;;;;;;;;;;24.47;46.88;99229.78;3149062;27;20271;-65
2022/08/18 03:43:58;;;;;;;;;;;;;;;24.48;46.53;99228.78;3121115;28;20621;-65
2022/08/18 03:45:30;;;;;;;;;;;;;;;24.51;46.59;99232.94;3121363;28;19929;-65
2022/08/18 03:47:02;;;;;;;;;;;;;;;24.43;46.45;99217.84;3119213;28;19933;-65
2022/08/18 03:48:33;;;;;;;;;;;;;;;24.54;46.43;99229.09;3121017;28;19925;-65
2022/08/18 03:50:05;;;;;;;;;;;;;;;24.51;46.84;99231.09;3121267;28;19944;-65
2022/08/18 03:51:37;;;;;;;;;;;;;;;24.50;46.64;99229.44;3121157;28;19925;-66
2022/08/18 03:53:08;;;;;;;;;;;;;;;24.50;46.84;99231.28;3121369;28;20369;-66
2022/08/18 03:54:39;;;;;;;;;;;;;;;24.48;46.72;99234.09;3119791;28;19929;-63
2022/08/18 03:56:14;;;;;;;;;;;;;;;24.47;46.75;99244.94;3120550;28;19936;-65
2022/08/18 03:57:47;;;;;;;;;;;;;;;24.44;46.80;99238.13;3119672;28;19932;-66
2022/08/18 03:59:19;;;;;;;;;;;;;;;24.43;46.88;99239.13;3121378;28;19933;-64
2022/08/18 04:00:51;;;;;;;;;;;;;;;24.40;47.18;99236.78;3121097;28;20304;-64
2022/08/18 04:02:22;;;;;;;;;;;;;;;24.38;47.12;99252.09;3120994;28;19932;-64
2022/08/18 04:03:55;;;;;;;;;;;;;;;24.36;47.10;99245.28;3121427;28;19933;-64
2022/08/18 04:05:28;;;;;;;;;;;;;;;24.34;47.22;99245.44;3115004;28;20303;-65
2022/08/18 04:07:03;;;;;;;;;;;;;;;24.34;47.31;99245.44;3121044;28;19933;-64
2022/08/18 04:08:33;;;;;;;;;;;;;;;24.33;47.51;99242.94;3119955;28;19929;-65
2022/08/18 04:10:06;;;;;;;;;;;;;;;24.28;47.75;99238.97;3121302;28;19935;-65
2022/08/18 04:11:37;;;;;;;;;;;;;;;24.23;47.85;99243.97;3119146;28;19929;-64
2022/08/18 04:13:10;;;;;;;;;;;;;;;24.22;47.89;99239.63;3120888;28;20344;-64
2022/08/18 04:14:45;;;;;;;;;;;;;;;24.22;47.60;99244.97;3121000;28;19963;-64
2022/08/18 04:16:17;;;;;;;;;;;;;;;24.23;47.60;99246.63;3121082;28;20361;-64
2022/08/18 04:17:48;;;;;;;;;;;;;;;24.23;48.03;99245.81;3121315;28;19936;-65
2022/08/18 04:19:20;;;;;;;;;;;;;;;24.22;48.02;99244.97;3121005;28;19929;-65
2022/08/18 04:20:52;;;;;;;;;;;;;;;24.22;47.90;99249.47;3121131;28;19929;-65
2022/08/18 04:22:25;;;;;;;;;;;;;;;24.25;47.86;99249.97;3121185;28;19998;-64
2022/08/18 04:23:58;;;;;;;;;;;;;;;24.26;47.78;99250.78;3121033;28;19941;-65
2022/08/18 04:25:31;;;;;;;;;;;;;;;24.27;47.62;99253.28;3120984;28;19929;-65
2022/08/18 04:27:03;;;;;;;;;;;;;;;24.30;47.77;99257.44;3116980;28;19929;-65
2022/08/18 04:28:35;;;;;;;;;;;;;;;24.33;47.83;99257.09;3121000;28;19987;-65
2022/08/18 04:30:08;;;;;;;;;;;;;;;24.35;47.92;99259.59;3121475;28;19929;-65
2022/08/18 04:31:40;;;;;;;;;;;;;;;24.34;47.83;99256.06;3120759;28;19947;-65
2022/08/18 04:33:11;;;;;;;;;;;;;;;24.37;47.64;99268.22;3120897;28;19925;-65
2022/08/18 04:34:42;;;;;;;;;;;;;;;24.39;47.72;99261.72;3117746;28;19936;-65
2022/08/18 04:36:15;;;;;;;;;;;;;;;24.43;47.75;99265.75;3119144;28;19929;-65
2022/08/18 04:37:47;;;;;;;;;;;;;;;24.47;47.39;99268.88;3117236;28;19936;-64
2022/08/18 04:39:18;;;;;;;;;;;;;;;24.50;47.61;99264.03;3120832;28;19925;-65
2022/08/18 04:40:50;;;;;;;;;;;;;;;24.54;47.33;99264.53;3120811;28;20001;-65
2022/08/18 04:42:22;;;;;;;;;;;;;;;24.61;47.14;99264.66;3114507;28;19937;-65
2022/08/18 04:43:56;;;;;;;;;;;;;;;24.68;46.79;99269.13;3120827;28;19928;-65
2022/08/18 04:45:28;;;;;;;;;;;;;;;24.75;46.52;99264.75;3120920;28;20016;-65
2022/08/18 04:47:00;;;;;;;;;;;;;;;24.84;46.37;99262.88;3120757;28;19929;-65
2022/08/18 04:48:32;;;;;;;;;;;;;;;24.91;45.83;99263.88;3120756;28;19997;-63
2022/08/18 04:50:04;;;;;;;;;;;;;;;25.00;45.68;99266.50;3120493;28;19933;-64
2022/08/18 04:51:36;;;;;;;;;;;;;;;25.07;45.72;99268.25;3116330;28;19925;-64
2022/08/18 04:54:56;;;;;;;;;;;;;;;25.20;45.34;99267.72;3122869;28;19961;-64
2022/08/18 04:56:29;;;;;;;;;;;;;;;25.26;45.00;99268.84;3122495;28;20291;-65
2022/08/18 04:58:00;;;;;;;;;;;;;;;25.32;45.13;99268.13;3123221;28;19936;-66
2022/08/18 04:59:33;;;;;;;;;;;;;;;25.35;45.05;99267.78;3122950;28;19925;-65
2022/08/18 05:01:04;;;;;;;;;;;;;;;25.40;44.93;99271.56;3122642;28;20382;-65
2022/08/18 05:02:36;;;;;;;;;;;;;;;25.42;44.56;99271.41;3122852;28;19925;-65
2022/08/18 05:04:08;;;;;;;;;;;;;;;25.46;44.88;99261.22;3123048;28;19997;-65
2022/08/18 05:05:40;;;;;;;;;;;;;;;25.50;44.75;99273.19;3118828;28;20299;-65
2022/08/18 05:07:12;;;;;;;;;;;;;;;25.52;44.59;99266.66;3122494;28;19925;-67
2022/08/18 05:08:43;;;;;;;;;;;;;;;25.55;44.89;99263.63;3122837;28;19958;-64
2022/08/18 05:10:16;;;;;;;;;;;;;;;25.58;44.79;99265.94;3122853;28;19940;-63
2022/08/18 05:11:49;;;;;;;;;;;;;;;25.62;44.48;99261.09;3121933;28;19926;-64
2022/08/18 05:13:20;;;;;;;;;;;;;;;25.64;44.75;99262.59;3122336;28;19924;-65
2022/08/18 05:14:55;;;;;;;;;;;;;;;25.69;44.75;99258.53;3122727;28;19925;-64
2022/08/18 05:16:27;;;;;;;;;;;;;;;25.72;44.39;99259.00;3119984;28;20410;-64
2022/08/18 05:18:00;;;;;;;;;;;;;;;25.76;44.49;99268.28;3122483;28;20044;-65
2022/08/18 05:19:33;;;;;;;;;;;;;;;25.80;44.49;99274.13;3121539;28;19936;-64
2022/08/18 05:21:04;;;;;;;;;;;;;;;25.83;44.43;99268.44;3122461;28;20422;-65
2022/08/18 05:22:37;;;;;;;;;;;;;;;25.87;44.41;99267.06;3122486;28;20376;-66
2022/08/18 05:24:10;;;;;;;;;;;;;;;25.93;44.26;99269.00;3122485;28;19925;-65
2022/08/18 05:25:42;;;;;;;;;;;;;;;25.98;44.30;99263.97;3122502;28;19925;-66
2022/08/18 05:27:13;;;;;;;;;;;;;;;26.07;44.17;99256.72;3122306;28;19925;-66
2022/08/18 05:28:46;;;;;;;;;;;;;;;26.13;43.70;99260.50;3122563;28;19929;-66
2022/08/18 05:30:19;;;;;;;;;;;;;;;26.21;43.44;99260.41;3122312;28;20365;-65
2022/08/18 05:31:51;;;;;;;;;;;;;;;26.27;43.47;99259.69;3122358;28;20372;-65
2022/08/18 05:33:23;;;;;;;;;;;;;;;26.37;43.04;99268.22;3122539;28;19948;-66
2022/08/18 05:34:55;;;;;;;;;;;;;;;26.46;43.03;99264.44;3122377;28;19930;-66
2022/08/18 05:36:32;;;;;;;;;;;;;;;26.54;42.59;99264.38;3122484;28;19925;-66
2022/08/18 05:38:10;;;;;;;;;;;;;;;26.64;42.32;99265.94;3122466;28;19940;-66
2022/08/18 05:39:50;;;;;;;;;;;;;;;26.76;42.25;99267.13;3122341;28;19981;-65
2022/08/18 05:41:24;;;;;;;;;;;;;;;27.03;41.87;99264.75;3122312;28;19948;-66
2022/08/18 05:42:57;;;;;;;;;;;;;;;28.05;39.79;99261.84;3122308;28;19925;-65
2022/08/18 05:44:30;;;;;;;;;;;;;;;29.31;37.24;99261.63;3129269;27;20010;-65
2022/08/18 05:46:05;;;;;;;;;;;;;;;29.89;36.74;99261.88;3119710;28;20308;-66
2022/08/18 05:47:36;;;;;;;;;;;;;;;29.86;36.62;99259.63;3120192;28;20272;-66
2022/08/18 05:49:08;;;;;;;;;;;;;;;29.67;36.88;99261.28;3121639;28;19925;-66
2022/08/18 05:50:40;;;;;;;;;;;;;;;29.48;37.12;99262.88;3122135;28;20076;-66
2022/08/18 05:52:15;;;;;;;;;;;;;;;29.41;36.97;99267.44;3116921;28;19937;-66
2022/08/18 05:57:31;;;;;;;;;;;;;;;29.15;37.51;99258.28;3121866;28;19929;-63
2022/08/18 05:59:03;;;;;;;;;;;;;;;29.02;37.79;99259.09;3122139;28;19925;-65
2022/08/18 06:00:36;;;;;;;;;;;;;;;28.90;38.03;99262.50;3121586;28;20371;-65
2022/08/18 06:02:12;;;;;;;;;;;;;;;28.78;38.32;99267.63;3122241;28;20347;-64
2022/08/18 06:03:47;;;;;;;;;;;;;;;28.74;38.44;99256.47;3121395;28;19925;-64
2022/08/18 06:05:21;;;;;;;;;;;;;;;28.71;38.45;99261.41;3116299;28;19968;-65
2022/08/18 06:06:52;;;;;;;;;;;;;;;28.72;38.78;99261.22;3118257;28;19972;-64
2022/08/18 06:08:27;;;;;;;;;;;;;;;28.73;38.51;99262.88;3122144;28;19933;-65
2022/08/18 06:09:59;;;;;;;;;;;;;;;28.76;38.60;99267.00;3122253;28;19925;-64
2022/08/18 06:11:30;;;;;;;;;;;;;;;28.80;38.65;99270.94;3121815;28;20434;-65
2022/08/18 06:13:02;;;;;;;;;;;;;;;28.85;38.29;99267.66;3122461;28;19925;-65
2022/08/18 06:14:36;;;;;;;;;;;;;;;28.91;38.48;99266.84;3121087;28;19941;-64
2022/08/18 06:16:14;;;;;;;;;;;;;;;28.95;38.46;99268.09;3119843;28;19929;-64
2022/08/18 06:17:53;;;;;;;;;;;;;;;28.97;38.41;99269.56;3122111;28;19929;-64
2022/08/18 06:19:32;;;;;;;;;;;;;;;29.00;37.87;99266.47;3122295;28;20119;-65
2022/08/18 06:21:10;;;;;;;;;;;;;;;29.05;37.81;99259.69;3122314;28;19925;-64
2022/08/18 06:22:48;;;;;;;;;;;;;;;29.09;37.77;99271.69;3121762;28;19925;-65
2022/08/18 06:24:26;;;;;;;;;;;;;;;29.11;37.52;99264.28;3121893;28;19929;-65
2022/08/18 06:26:12;;;;;;;;;;;;;;;29.17;37.66;99266.16;3119297;28;19937;-65
2022/08/18 06:27:54;;;;;;;;;;;;;;;29.23;37.36;99266.16;3122212;28;19925;-65
2022/08/18 06:29:33;;;;;;;;;;;;;;;29.30;37.30;99260.78;3116640;28;20266;-65
2022/08/18 06:31:11;;;;;;;;;;;;;;;29.36;37.00;99262.66;3118518;28;19956;-65
2022/08/18 06:32:51;;;;;;;;;;;;;;;29.44;37.18;99267.00;3121969;28;19925;-65
2022/08/18 06:34:29;;;;;;;;;;;;;;;29.54;37.01;99271.97;3122015;28;19925;-65
2022/08/18 06:36:03;;;;;;;;;;;;;;;29.63;37.05;99270.75;3121821;28;20289;-64
2022/08/18 06:38:37;;;;;;;;;;;;;;;29.74;36.58;99267.47;3121933;28;20028;-65
2022/08/18 06:39:31;;;;;;;;;;;;;;;29.84;36.64;99272.41;3121644;28;19929;-65
2022/08/18 06:41:08;;;;;;;;;;;;;;;29.93;36.39;99281.91;3121487;28;19929;-65
2022/08/18 06:42:40;;;;;;;;;;;;;;;30.03;36.60;99271.59;3121172;28;19929;-65
2022/08/18 06:44:13;;;;;;;;;;;;;;;30.11;36.15;99282.13;3118212;28;19925;-65
2022/08/18 06:45:50;;;;;;;;;;;;;;;30.15;35.67;99274.47;3121926;28;19997;-65
2022/08/18 06:47:31;;;;;;;;;;;;;;;30.16;35.29;99271.56;3121801;28;20382;-65
2022/08/18 06:49:03;;;;;;;;;;;;;;;30.24;35.62;99283.16;3121894;28;19995;-65
2022/08/18 06:50:41;;;;;;;;;;;;;;;30.24;35.17;99277.78;3121985;28;19949;-65
2022/08/18 06:52:20;;;;;;;;;;;;;;;30.27;35.20;99280.88;3117040;28;20275;-65
2022/08/18 06:53:56;;;;;;;;;;;;;;;30.33;35.22;99279.22;3121726;28;20005;-65
2022/08/18 06:55:32;;;;;;;;;;;;;;;30.41;35.15;99279.00;3121585;28;19925;-65
2022/08/18 06:57:04;;;;;;;;;;;;;;;30.47;35.13;99283.53;3117905;28;20261;-65
2022/08/18 06:58:36;;;;;;;;;;;;;;;30.51;34.73;99284.72;3110039;28;19929;-64
2022/08/18 07:00:10;;;;;;;;;;;;;;;30.57;34.83;99283.88;3121116;28;19936;-64
2022/08/18 07:01:42;;;;;;;;;;;;;;;30.63;34.75;99287.59;3121479;28;19925;-65
2022/08/18 07:03:15;;;;;;;;;;;;;;;30.69;34.77;99280.56;3121326;27;20023;-64
2022/08/18 07:05:00;;;;;;;;;;;;;;;30.74;34.91;99276.19;3121584;28;19926;-65
2022/08/18 07:06:33;;;;;;;;;;;;;;;30.78;34.62;99277.44;3121320;28;19925;-65
2022/08/18 07:08:09;;;;;;;;;;;;;;;30.85;34.68;99284.63;3121623;28;19929;-65
2022/08/18 07:09:41;;;;;;;;;;;;;;;30.92;34.56;99282.75;3118580;28;20081;-65
2022/08/18 07:11:14;;;;;;;;;;;;;;;30.99;34.21;99278.16;3121406;28;19936;-65
2022/08/18 07:12:45;;;;;;;;;;;;;;;31.07;34.56;99280.63;3121654;28;19930;-65
2022/08/18 07:14:19;;;;;;;;;;;;;;;31.12;34.04;99279.94;3121584;28;19937;-65
2022/08/18 07:15:52;;;;;;;;;;;;;;;31.16;34.27;99275.81;3117147;28;19940;-65
2022/08/18 07:17:25;;;;;;;;;;;;;;;31.23;34.10;99276.59;3121709;28;19925;-65
2022/08/18 07:19:06;;;;;;;;;;;;;;;31.27;33.72;99272.44;3121560;28;19933;-65
2022/08/18 07:20:42;;;;;;;;;;;;;;;31.35;34.19;99280.25;3121438;28;20295;-65
2022/08/18 07:22:16;;;;;;;;;;;;;;;31.39;33.85;99270.72;3121451;28;19936;-65
2022/08/18 07:23:57;;;;;;;;;;;;;;;31.48;33.82;99277.50;3121641;28;19976;-65
2022/08/18 07:25:31;;;;;;;;;;;;;;;31.58;33.60;99271.63;3119864;28;20557;-65
2022/08/18 07:27:05;;;;;;;;;;;;;;;31.67;33.42;99274.88;3119617;28;20282;-65
2022/08/18 07:28:38;;;;;;;;;;;;;;;31.75;33.48;99269.22;3121288;28;20280;-65
2022/08/18 07:30:12;;;;;;;;;;;;;;;31.79;33.20;99262.34;3121656;28;19929;-65
2022/08/18 07:31:47;;;;;;;;;;;;;;;31.79;33.01;99267.72;3117922;28;19929;-65
2022/08/18 07:33:22;;;;;;;;;;;;;;;31.82;33.03;99259.19;3121297;28;20416;-65
2022/08/18 07:34:57;;;;;;;;;;;;;;;31.90;32.97;99267.03;3121280;28;19925;-65
2022/08/18 07:36:32;;;;;;;;;;;;;;;31.97;33.02;99263.47;3121293;28;19929;-65
2022/08/18 07:38:10;;;;;;;;;;;;;;;32.07;32.88;99266.47;3121594;28;19925;-65
2022/08/18 07:39:45;;;;;;;;;;;;;;;32.17;32.71;99266.78;3116799;28;19925;-66
2022/08/18 07:41:20;;;;;;;;;;;;;;;32.23;32.41;99259.69;3133752;28;19925;-65
2022/08/18 07:42:56;;;;;;;;;;;;;;;32.30;32.37;99260.41;3114698;28;21190;-65
2022/08/18 07:44:34;;;;;;;;;;;;;;;32.36;32.12;99260.38;3121371;28;19925;-65
2022/08/18 07:46:12;;;;;;;;;;;;;;;32.43;32.15;99264.88;3135359;27;19939;-65
2022/08/18 07:47:49;;;;;;;;;;;;;;;32.48;31.87;99262.31;3121086;28;20704;-65
2022/08/18 07:49:23;;;;;;;;;;;;;;;32.56;32.33;99260.16;3120988;28;19932;-65
2022/08/18 07:50:59;;;;;;;;;;;;;;;32.66;32.08;99259.66;3121356;28;20002;-65
2022/08/18 07:52:32;;;;;;;;;;;;;;;32.75;32.10;99263.69;3121209;28;20020;-65
2022/08/18 07:54:08;;;;;;;;;;;;;;;32.90;31.96;99263.28;3114542;28;19929;-65
2022/08/18 07:55:41;;;;;;;;;;;;;;;33.05;32.09;99254.81;3121258;28;19929;-65
2022/08/18 07:57:16;;;;;;;;;;;;;;;33.18;31.69;99257.31;3120959;28;19936;-65
2022/08/18 07:58:51;;;;;;;;;;;;;;;33.27;31.67;99255.09;3121417;28;19925;-65
2022/08/18 08:00:25;;;;;;;;;;;;;;;33.37;31.61;99258.06;3120851;28;20377;-65
2022/08/18 08:02:03;;;;;;;;;;;;;;;33.49;31.32;99258.09;3120947;28;19929;-65
2022/08/18 08:03:43;;;;;;;;;;;;;;;33.59;31.04;99252.97;3120916;28;19995;-65
2022/08/18 08:05:17;;;;;;;;;;;;;;;33.64;30.65;99258.50;3121023;28;19940;-65
2022/08/18 08:06:53;;;;;;;;;;;;;;;33.73;30.88;99249.00;3121089;28;19925;-65
2022/08/18 08:08:28;;;;;;;;;;;;;;;33.88;30.79;99250.41;3115078;28;19929;-65
2022/08/18 08:10:12;;;;;;;;;;;;;;;33.96;30.23;99241.97;3114577;28;19929;-65
2022/08/18 08:11:51;;;;;;;;;;;;;;;34.01;30.20;99247.47;3120606;28;20587;-65
2022/08/18 08:13:27;;;;;;;;;;;;;;;34.05;30.16;99240.59;3115514;28;20016;-65
2022/08/18 08:15:03;;;;;;;;;;;;;;;34.09;29.54;99239.03;3115177;28;20042;-65
2022/08/18 08:16:44;;;;;;;;;;;;;;;34.20;29.92;99240.09;3114939;28;19960;-63
2022/08/18 08:18:19;;;;;;;;;;;;;;;34.38;29.64;99233.72;3115043;28;20395;-63
2022/08/18 08:20:01;;;;;;;;;;;;;;;34.54;29.08;99248.38;3114785;28;19925;-65